createdAt,value
2022-10-10T00:00:36.312Z,4.16
2022-10-10T00:01:40.483Z,4.20
2022-10-10T00:02:43.548Z,4.23
2022-10-10T00:03:47.603Z,4.26
2022-10-10T00:04:53.209Z,4.28
2022-10-10T00:05:58.730Z,4.31
2022-10-10T00:07:01.723Z,4.33
2022-10-10T00:08:08.535Z,4.35
2022-10-10T00:09:11.706Z,4.37
2022-10-10T00:10:15.777Z,4.38
2022-10-10T00:11:21.550Z,4.39
2022-10-10T00:12:25.816Z,4.44
2022-10-10T00:13:28.965Z,4.46
2022-10-10T00:14:33.236Z,4.47
2022-10-10T00:15:36.274Z,4.48
2022-10-10T00:16:40.427Z,4.50
2022-10-10T00:17:44.066Z,4.50
2022-10-10T00:18:48.197Z,4.50
2022-10-10T00:19:51.241Z,4.52
2022-10-10T00:20:55.408Z,4.54
2022-10-10T00:21:59.856Z,4.54
2022-10-10T00:23:04.017Z,4.56
2022-10-10T00:24:07.508Z,4.58
2022-10-10T00:25:12.345Z,4.60
2022-10-10T00:26:18.906Z,4.60
2022-10-10T00:27:23.653Z,4.62
2022-10-10T00:28:26.763Z,4.64
2022-10-10T00:29:30.886Z,4.66
2022-10-10T00:30:33.825Z,4.68
2022-10-10T00:31:37.986Z,4.67
2022-10-10T00:32:41.011Z,4.66
2022-10-10T00:33:45.217Z,4.66
2022-10-10T00:34:48.367Z,4.65
2022-10-10T00:35:52.504Z,4.64
2022-10-10T00:36:55.472Z,4.64
2022-10-10T00:38:01.084Z,4.65
2022-10-10T00:39:04.294Z,4.65
2022-10-10T00:40:09.596Z,4.66
2022-10-10T00:41:12.892Z,4.65
2022-10-10T00:42:18.566Z,4.64
2022-10-10T00:43:22.271Z,4.65
2022-10-10T00:44:28.058Z,4.64
2022-10-10T00:45:37.123Z,4.63
2022-10-10T00:46:42.077Z,4.63
2022-10-10T00:47:45.149Z,4.62
2022-10-10T00:48:49.326Z,4.64
2022-10-10T00:49:52.358Z,4.63
2022-10-10T00:50:58.977Z,4.62
2022-10-10T00:52:02.155Z,4.61
2022-10-10T00:53:08.995Z,4.61
2022-10-10T00:54:13.408Z,4.58
2022-10-10T00:55:18.544Z,4.58
2022-10-10T00:56:27.219Z,4.56
2022-10-10T00:57:30.209Z,4.57
2022-10-10T00:58:35.647Z,4.56
2022-10-10T00:59:40.537Z,4.57
2022-10-10T01:00:44.937Z,4.55
2022-10-10T01:01:48.415Z,4.52
2022-10-10T01:02:53.059Z,4.51
2022-10-10T01:03:58.373Z,4.51
2022-10-10T01:05:02.385Z,4.52
2022-10-10T01:06:06.265Z,4.51
2022-10-10T01:07:13.163Z,4.50
2022-10-10T01:08:18.364Z,4.50
2022-10-10T01:09:22.593Z,4.47
2022-10-10T01:10:26.029Z,4.44
2022-10-10T01:11:52.478Z,4.42
2022-10-10T01:13:04.563Z,4.37
2022-10-10T01:14:18.125Z,4.33
2022-10-10T01:15:26.804Z,4.28
2022-10-10T01:16:37.357Z,4.22
2022-10-10T01:17:45.493Z,4.14
2022-10-10T01:18:56.607Z,4.09
2022-10-10T01:20:33.275Z,4.02
2022-10-10T01:21:40.413Z,3.93
2022-10-10T01:22:53.473Z,3.89
2022-10-10T01:24:42.436Z,3.77
2022-10-10T01:25:58.354Z,3.65
2022-10-10T01:27:37.436Z,3.59
2022-10-10T01:28:45.974Z,3.51
2022-10-10T01:29:53.474Z,3.47
2022-10-10T01:30:57.132Z,3.44
2022-10-10T01:32:06.326Z,3.39
2022-10-10T01:33:27.345Z,3.36
2022-10-10T01:34:35.975Z,3.31
2022-10-10T01:35:49.082Z,3.24
2022-10-10T01:36:58.200Z,3.20
2022-10-10T01:38:08.800Z,3.14
2022-10-10T01:39:21.080Z,3.08
2022-10-10T01:40:31.247Z,3.02
2022-10-10T01:41:39.306Z,2.97
2022-10-10T01:42:48.399Z,2.93
2022-10-10T01:43:55.233Z,2.87
2022-10-10T01:44:59.340Z,2.84
2022-10-10T01:46:10.261Z,2.79
2022-10-10T01:47:15.042Z,2.78
2022-10-10T01:48:22.372Z,2.74
2022-10-10T01:49:30.470Z,2.71
2022-10-10T01:50:37.788Z,2.69
2022-10-10T01:51:50.787Z,2.65
2022-10-10T01:53:04.152Z,2.61
2022-10-10T01:54:18.487Z,2.57
2022-10-10T01:55:32.840Z,2.54
2022-10-10T01:56:40.916Z,2.49
2022-10-10T01:57:51.823Z,2.45
2022-10-10T01:59:14.653Z,2.44
2022-10-10T02:00:18.812Z,2.41
2022-10-10T02:01:27.770Z,2.37
2022-10-10T02:02:40.809Z,2.34
2022-10-10T02:03:47.416Z,2.31
2022-10-10T02:04:54.185Z,2.29
2022-10-10T02:06:02.190Z,2.27
2022-10-10T02:07:08.852Z,2.26
2022-10-10T02:08:16.956Z,2.25
2022-10-10T02:09:23.772Z,2.22
2022-10-10T02:10:29.955Z,2.20
2022-10-10T02:11:34.802Z,2.18
2022-10-10T02:12:40.026Z,2.17
2022-10-10T02:13:45.804Z,2.15
2022-10-10T02:14:53.225Z,2.15
2022-10-10T02:15:58.320Z,2.13
2022-10-10T02:17:02.816Z,2.11
2022-10-10T02:18:07.044Z,2.08
2022-10-10T02:19:13.632Z,2.06
2022-10-10T02:20:20.511Z,2.05
2022-10-10T02:21:26.250Z,2.04
2022-10-10T02:22:30.470Z,2.04
2022-10-10T02:23:35.763Z,2.02
2022-10-10T02:24:38.914Z,2.00
2022-10-10T02:25:43.463Z,1.98
2022-10-10T02:26:50.195Z,1.94
2022-10-10T02:28:01.316Z,1.92
2022-10-10T02:29:06.831Z,1.88
2022-10-10T02:30:14.293Z,1.86
2022-10-10T02:31:21.512Z,1.83
2022-10-10T02:32:33.749Z,1.81
2022-10-10T02:33:44.915Z,1.77
2022-10-10T02:34:51.038Z,1.75
2022-10-10T02:35:55.224Z,1.75
2022-10-10T02:37:00.930Z,1.72
2022-10-10T02:38:06.275Z,1.71
2022-10-10T02:39:10.575Z,1.70
2022-10-10T02:40:17.942Z,1.67
2022-10-10T02:41:22.830Z,1.65
2022-10-10T02:42:27.246Z,1.64
2022-10-10T02:43:32.619Z,1.64
2022-10-10T02:44:35.985Z,1.64
2022-10-10T02:45:42.103Z,1.64
2022-10-10T02:46:45.792Z,1.64
2022-10-10T02:47:49.782Z,1.64
2022-10-10T02:48:53.339Z,1.62
2022-10-10T02:49:57.609Z,1.59
2022-10-10T02:51:00.801Z,1.58
2022-10-10T02:52:05.668Z,1.58
2022-10-10T02:53:09.461Z,1.59
2022-10-10T02:54:13.488Z,1.64
2022-10-10T02:55:17.517Z,1.66
2022-10-10T02:56:22.281Z,1.67
2022-10-10T02:57:25.274Z,1.68
2022-10-10T02:58:29.345Z,1.68
2022-10-10T02:59:32.511Z,1.69
2022-10-10T03:00:36.652Z,1.66
2022-10-10T03:01:41.325Z,1.63
2022-10-10T03:02:46.401Z,1.62
2022-10-10T03:03:49.529Z,1.59
2022-10-10T03:04:53.589Z,1.57
2022-10-10T03:05:56.551Z,1.53
2022-10-10T03:07:00.592Z,1.51
2022-10-10T03:08:05.891Z,1.50
2022-10-10T03:09:13.322Z,1.48
2022-10-10T03:10:16.411Z,1.47
2022-10-10T03:11:20.445Z,1.44
2022-10-10T03:12:23.441Z,1.44
2022-10-10T03:13:27.613Z,1.44
2022-10-10T03:14:31.029Z,1.42
2022-10-10T03:15:34.958Z,1.40
2022-10-10T03:16:37.953Z,1.37
2022-10-10T03:17:43.424Z,1.36
2022-10-10T03:18:46.950Z,1.34
2022-10-10T03:19:51.212Z,1.32
2022-10-10T03:20:56.257Z,1.30
2022-10-10T03:22:00.371Z,1.29
2022-10-10T03:23:03.625Z,1.27
2022-10-10T03:24:08.173Z,1.27
2022-10-10T03:25:11.140Z,1.25
2022-10-10T03:26:15.261Z,1.25
2022-10-10T03:27:18.311Z,1.24
2022-10-10T03:28:22.815Z,1.25
2022-10-10T03:29:25.881Z,1.22
2022-10-10T03:30:30.056Z,1.20
2022-10-10T03:31:33.379Z,1.18
2022-10-10T03:32:37.543Z,1.16
2022-10-10T03:33:41.932Z,1.15
2022-10-10T03:34:46.349Z,1.14
2022-10-10T03:35:49.829Z,1.13
2022-10-10T03:36:53.981Z,1.12
2022-10-10T03:37:57.091Z,1.13
2022-10-10T03:39:01.142Z,1.13
2022-10-10T03:40:04.569Z,1.13
2022-10-10T03:41:08.699Z,1.13
2022-10-10T03:42:11.660Z,1.12
2022-10-10T03:43:16.944Z,1.12
2022-10-10T03:44:19.884Z,1.13
2022-10-10T03:45:24.092Z,1.14
2022-10-10T03:46:27.038Z,1.13
2022-10-10T03:47:31.129Z,1.13
2022-10-10T03:48:34.330Z,1.13
2022-10-10T03:49:39.867Z,1.13
2022-10-10T03:50:43.175Z,1.12
2022-10-10T03:51:47.203Z,1.12
2022-10-10T03:52:50.397Z,1.11
2022-10-10T03:53:56.051Z,1.10
2022-10-10T03:54:59.052Z,1.08
2022-10-10T03:56:03.071Z,1.05
2022-10-10T03:57:06.089Z,1.03
2022-10-10T03:58:10.254Z,1.02
2022-10-10T03:59:13.392Z,0.99
2022-10-10T04:00:17.441Z,0.97
2022-10-10T04:01:20.416Z,0.96
2022-10-10T04:02:24.539Z,0.94
2022-10-10T04:03:27.772Z,0.94
2022-10-10T04:04:32.226Z,0.92
2022-10-10T04:05:37.860Z,0.90
2022-10-10T04:06:41.868Z,0.91
2022-10-10T04:07:44.781Z,0.92
2022-10-10T04:08:48.879Z,0.96
2022-10-10T04:09:51.997Z,0.98
2022-10-10T04:10:57.137Z,1.02
2022-10-10T04:12:00.172Z,1.04
2022-10-10T04:13:04.371Z,1.08
2022-10-10T04:14:07.410Z,1.13
2022-10-10T04:15:12.414Z,1.13
2022-10-10T04:16:15.822Z,1.12
2022-10-10T04:17:19.832Z,1.12
2022-10-10T04:18:23.723Z,1.10
2022-10-10T04:19:27.923Z,1.09
2022-10-10T04:20:30.921Z,1.07
2022-10-10T04:21:37.052Z,1.06
2022-10-10T04:22:40.052Z,1.04
2022-10-10T04:23:44.724Z,1.03
2022-10-10T04:24:48.538Z,1.03
2022-10-10T04:25:54.180Z,1.02
2022-10-10T04:26:57.761Z,1.01
2022-10-10T04:28:02.186Z,1.00
2022-10-10T04:29:05.870Z,0.99
2022-10-10T04:30:10.810Z,0.98
2022-10-10T04:31:14.008Z,0.97
2022-10-10T04:32:17.990Z,0.97
2022-10-10T04:33:21.276Z,0.96
2022-10-10T04:34:25.304Z,0.95
2022-10-10T04:35:28.462Z,0.94
2022-10-10T04:36:32.703Z,0.94
2022-10-10T04:37:37.678Z,0.92
2022-10-10T04:38:42.026Z,0.92
2022-10-10T04:39:45.066Z,0.90
2022-10-10T04:40:50.131Z,0.91
2022-10-10T04:41:53.167Z,0.89
2022-10-10T04:42:57.368Z,0.88
2022-10-10T04:44:00.677Z,0.88
2022-10-10T04:45:05.125Z,0.88
2022-10-10T04:46:08.231Z,0.87
2022-10-10T04:47:13.222Z,0.86
2022-10-10T04:48:16.348Z,0.85
2022-10-10T04:49:20.315Z,0.84
2022-10-10T04:50:23.932Z,0.83
2022-10-10T04:51:28.656Z,0.80
2022-10-10T04:52:31.690Z,0.77
2022-10-10T04:53:37.595Z,0.74
2022-10-10T04:54:40.945Z,0.72
2022-10-10T04:55:45.713Z,0.72
2022-10-10T04:56:48.863Z,0.69
2022-10-10T04:57:52.918Z,0.69
2022-10-10T04:58:55.910Z,0.69
2022-10-10T04:59:59.941Z,0.70
2022-10-10T05:01:04.478Z,0.69
2022-10-10T05:02:08.578Z,0.69
2022-10-10T05:03:12.845Z,0.69
2022-10-10T05:04:17.052Z,0.69
2022-10-10T05:05:20.031Z,0.69
2022-10-10T05:06:24.070Z,0.66
2022-10-10T05:07:27.040Z,0.66
2022-10-10T05:08:31.034Z,0.66
2022-10-10T05:09:36.029Z,0.66
2022-10-10T05:10:40.731Z,0.66
2022-10-10T05:11:43.721Z,0.66
2022-10-10T05:12:47.886Z,0.66
2022-10-10T05:13:51.201Z,0.67
2022-10-10T05:14:55.321Z,0.69
2022-10-10T05:15:58.292Z,0.70
2022-10-10T05:17:02.599Z,0.71
2022-10-10T05:18:05.913Z,0.71
2022-10-10T05:19:09.921Z,0.72
2022-10-10T05:20:12.933Z,0.73
2022-10-10T05:21:16.971Z,0.76
2022-10-10T05:22:19.910Z,0.79
2022-10-10T05:23:24.283Z,0.82
2022-10-10T05:24:27.330Z,0.86
2022-10-10T05:25:32.863Z,0.90
2022-10-10T05:26:38.655Z,0.94
2022-10-10T05:27:46.408Z,0.96
2022-10-10T05:28:49.374Z,0.98
2022-10-10T05:29:53.643Z,1.02
2022-10-10T05:30:56.591Z,1.10
2022-10-10T05:32:00.613Z,1.18
2022-10-10T05:33:03.534Z,1.25
2022-10-10T05:34:07.558Z,1.35
2022-10-10T05:35:10.554Z,1.50
2022-10-10T05:36:15.114Z,1.66
2022-10-10T05:37:18.354Z,1.83
2022-10-10T05:38:22.354Z,1.91
2022-10-10T05:39:25.539Z,1.99
2022-10-10T05:40:29.634Z,2.09
2022-10-10T05:41:34.376Z,2.25
2022-10-10T05:42:38.425Z,2.43
2022-10-10T05:43:41.568Z,2.65
2022-10-10T05:44:45.571Z,2.85
2022-10-10T05:45:48.573Z,3.06
2022-10-10T05:46:52.725Z,3.28
2022-10-10T05:47:55.854Z,3.50
2022-10-10T05:48:59.881Z,3.71
2022-10-10T05:50:02.760Z,3.92
2022-10-10T05:51:08.779Z,4.13
2022-10-10T05:52:11.740Z,4.31
2022-10-10T05:53:15.862Z,4.50
2022-10-10T05:54:19.962Z,4.68
2022-10-10T05:55:23.158Z,4.84
2022-10-10T05:56:27.252Z,4.98
2022-10-10T05:57:31.761Z,5.12
2022-10-10T05:58:35.884Z,5.24
2022-10-10T05:59:38.804Z,5.32
2022-10-10T06:00:42.879Z,5.38
2022-10-10T06:01:45.949Z,5.47
2022-10-10T06:02:50.423Z,5.61
2022-10-10T06:03:56.235Z,5.74
2022-10-10T06:05:00.300Z,5.88
2022-10-10T06:06:03.751Z,6.05
2022-10-10T06:07:07.744Z,6.21
2022-10-10T06:08:12.322Z,6.40
2022-10-10T06:09:16.730Z,6.59
2022-10-10T06:10:19.922Z,6.75
2022-10-10T06:11:26.190Z,6.92
2022-10-10T06:12:29.217Z,7.09
2022-10-10T06:13:35.108Z,7.21
2022-10-10T06:14:38.162Z,7.37
2022-10-10T06:15:43.060Z,7.49
2022-10-10T06:16:46.353Z,7.63
2022-10-10T06:17:50.364Z,7.77
2022-10-10T06:18:53.975Z,7.92
2022-10-10T06:19:58.105Z,8.08
2022-10-10T06:21:02.564Z,8.20
2022-10-10T06:22:06.770Z,8.32
2022-10-10T06:23:10.012Z,8.43
2022-10-10T06:24:14.012Z,8.52
2022-10-10T06:25:38.420Z,8.66
2022-10-10T06:26:41.219Z,8.84
2022-10-10T06:27:44.292Z,8.98
2022-10-10T06:28:51.088Z,9.13
2022-10-10T06:29:54.202Z,9.27
2022-10-10T06:31:02.020Z,9.44
2022-10-10T06:32:05.031Z,9.58
2022-10-10T06:33:09.157Z,9.76
2022-10-10T06:34:13.188Z,9.90
2022-10-10T06:35:16.331Z,10.06
2022-10-10T06:36:21.238Z,10.20
2022-10-10T06:37:24.472Z,10.35
2022-10-10T06:38:28.994Z,10.48
2022-10-10T06:39:32.172Z,10.61
2022-10-10T06:40:36.279Z,10.74
2022-10-10T06:41:39.394Z,10.85
2022-10-10T06:42:47.472Z,10.99
2022-10-10T06:43:56.100Z,11.08
2022-10-10T06:44:59.276Z,11.17
2022-10-10T06:46:03.469Z,11.29
2022-10-10T06:47:06.522Z,11.37
2022-10-10T06:48:11.213Z,11.45
2022-10-10T06:49:14.275Z,11.54
2022-10-10T06:50:18.471Z,11.65
2022-10-10T06:51:21.488Z,11.74
2022-10-10T06:52:25.913Z,11.83
2022-10-10T06:53:28.912Z,11.87
2022-10-10T06:54:33.297Z,11.92
2022-10-10T06:55:36.292Z,11.95
2022-10-10T06:56:40.262Z,11.97
2022-10-10T06:57:43.197Z,12.01
2022-10-10T06:58:47.893Z,12.05
2022-10-10T06:59:52.499Z,12.10
2022-10-10T07:00:58.341Z,12.14
2022-10-10T07:02:01.316Z,12.19
2022-10-10T07:03:05.511Z,12.27
2022-10-10T07:04:11.040Z,12.30
2022-10-10T07:05:16.602Z,12.29
2022-10-10T07:06:20.873Z,12.27
2022-10-10T07:07:24.173Z,12.25
2022-10-10T07:08:28.703Z,12.24
2022-10-10T07:09:31.841Z,12.21
2022-10-10T07:10:36.047Z,12.16
2022-10-10T07:11:45.434Z,12.08
2022-10-10T07:12:49.766Z,12.02
2022-10-10T07:13:54.410Z,11.97
2022-10-10T07:14:58.826Z,11.92
2022-10-10T07:16:03.095Z,11.87
2022-10-10T07:17:06.061Z,11.83
2022-10-10T07:18:10.182Z,11.82
2022-10-10T07:19:13.593Z,11.85
2022-10-10T07:20:17.649Z,11.88
2022-10-10T07:21:21.950Z,11.93
2022-10-10T07:22:25.445Z,11.98
2022-10-10T07:23:29.872Z,12.04
2022-10-10T07:24:33.001Z,12.09
2022-10-10T07:25:39.375Z,12.22
2022-10-10T07:26:43.432Z,12.36
2022-10-10T07:27:46.413Z,12.46
2022-10-10T07:28:50.510Z,12.60
2022-10-10T07:29:53.596Z,12.70
2022-10-10T07:31:02.776Z,12.80
2022-10-10T07:32:05.781Z,12.86
2022-10-10T07:33:09.840Z,12.88
2022-10-10T07:34:12.814Z,12.90
2022-10-10T07:35:16.961Z,12.90
2022-10-10T07:36:19.944Z,12.93
2022-10-10T07:37:24.053Z,12.94
2022-10-10T07:38:28.292Z,12.97
2022-10-10T07:39:31.211Z,12.99
2022-10-10T07:40:35.218Z,13.02
2022-10-10T07:41:39.161Z,13.02
2022-10-10T07:42:42.065Z,12.98
2022-10-10T07:43:46.153Z,12.96
2022-10-10T07:44:49.135Z,12.93
2022-10-10T07:45:53.292Z,12.92
2022-10-10T07:46:57.679Z,12.92
2022-10-10T07:48:01.677Z,12.93
2022-10-10T07:49:04.722Z,12.93
2022-10-10T07:50:09.864Z,12.93
2022-10-10T07:51:12.949Z,12.92
2022-10-10T07:52:17.930Z,12.91
2022-10-10T07:53:22.238Z,12.92
2022-10-10T07:54:25.452Z,12.91
2022-10-10T07:55:29.911Z,12.89
2022-10-10T07:56:34.144Z,12.87
2022-10-10T07:57:37.742Z,12.85
2022-10-10T07:58:41.934Z,12.83
2022-10-10T07:59:45.962Z,12.81
2022-10-10T08:00:50.126Z,12.80
2022-10-10T08:01:53.644Z,12.80
2022-10-10T08:02:59.192Z,12.77
2022-10-10T08:04:02.253Z,12.77
2022-10-10T08:05:06.963Z,12.77
2022-10-10T08:06:14.019Z,12.76
2022-10-10T08:07:17.206Z,12.77
2022-10-10T08:08:21.352Z,12.79
2022-10-10T08:09:25.756Z,12.81
2022-10-10T08:10:29.029Z,12.83
2022-10-10T08:11:33.158Z,12.86
2022-10-10T08:12:36.544Z,12.88
2022-10-10T08:13:42.597Z,12.90
2022-10-10T08:14:46.718Z,12.92
2022-10-10T08:15:51.397Z,12.94
2022-10-10T08:16:55.561Z,12.97
2022-10-10T08:18:01.201Z,13.00
2022-10-10T08:19:05.536Z,13.04
2022-10-10T08:20:09.317Z,13.06
2022-10-10T08:21:14.878Z,13.09
2022-10-10T08:22:17.881Z,13.12
2022-10-10T08:23:23.794Z,13.14
2022-10-10T08:24:27.146Z,13.18
2022-10-10T08:25:31.278Z,13.21
2022-10-10T08:26:34.292Z,13.23
2022-10-10T08:27:38.480Z,13.25
2022-10-10T08:28:41.757Z,13.29
2022-10-10T08:29:45.884Z,13.32
2022-10-10T08:30:49.972Z,13.35
2022-10-10T08:31:53.119Z,13.39
2022-10-10T08:32:57.203Z,13.42
2022-10-10T08:34:02.141Z,13.45
2022-10-10T08:35:08.131Z,13.47
2022-10-10T08:36:13.307Z,13.49
2022-10-10T08:37:17.994Z,13.52
2022-10-10T08:38:21.288Z,13.55
2022-10-10T08:39:25.452Z,13.59
2022-10-10T08:40:30.206Z,13.62
2022-10-10T08:41:40.864Z,13.65
2022-10-10T08:42:52.521Z,13.68
2022-10-10T08:44:01.194Z,13.71
2022-10-10T08:45:10.624Z,13.75
2022-10-10T08:46:18.912Z,13.80
2022-10-10T08:47:25.372Z,13.82
2022-10-10T08:48:30.677Z,13.89
2022-10-10T08:49:39.001Z,13.94
2022-10-10T08:50:44.231Z,13.99
2022-10-10T08:51:53.884Z,14.04
2022-10-10T08:52:59.938Z,14.08
2022-10-10T08:54:05.012Z,14.12
2022-10-10T08:55:15.278Z,14.18
2022-10-10T08:56:21.834Z,14.23
2022-10-10T08:57:29.437Z,14.28
2022-10-10T08:58:35.289Z,14.32
2022-10-10T08:59:41.758Z,14.38
2022-10-10T09:00:48.295Z,14.42
2022-10-10T09:02:18.278Z,14.47
2022-10-10T09:03:26.013Z,14.52
2022-10-10T09:04:32.662Z,14.55
2022-10-10T09:05:49.858Z,14.61
2022-10-10T09:07:02.302Z,14.67
2022-10-10T09:08:17.616Z,14.74
2022-10-10T09:09:29.476Z,14.79
2022-10-10T09:10:36.541Z,14.85
2022-10-10T09:11:50.670Z,14.91
2022-10-10T09:12:59.706Z,14.94
2022-10-10T09:14:16.202Z,14.95
2022-10-10T09:15:22.036Z,14.97
2022-10-10T09:16:33.823Z,14.97
2022-10-10T09:17:41.037Z,14.98
2022-10-10T09:18:55.957Z,15.01
2022-10-10T09:20:07.939Z,15.06
2022-10-10T09:21:16.546Z,15.10
2022-10-10T09:22:25.384Z,15.16
2022-10-10T09:23:32.835Z,15.20
2022-10-10T09:24:42.610Z,15.24
2022-10-10T09:25:52.760Z,15.29
2022-10-10T09:27:00.831Z,15.31
2022-10-10T09:28:09.268Z,15.33
2022-10-10T09:29:28.801Z,15.36
2022-10-10T09:30:32.891Z,15.37
2022-10-10T09:31:39.580Z,15.40
2022-10-10T09:32:43.983Z,15.42
2022-10-10T09:33:53.678Z,15.46
2022-10-10T09:35:01.950Z,15.50
2022-10-10T09:36:08.710Z,15.51
2022-10-10T09:37:35.284Z,15.51
2022-10-10T09:38:45.361Z,15.50
2022-10-10T09:39:53.445Z,15.52
2022-10-10T09:40:59.411Z,15.53
2022-10-10T09:42:06.207Z,15.56
2022-10-10T09:43:12.923Z,15.61
2022-10-10T09:44:17.036Z,15.66
2022-10-10T09:45:22.013Z,15.72
2022-10-10T09:46:26.644Z,15.80
2022-10-10T09:47:30.774Z,15.87
2022-10-10T09:48:36.172Z,15.95
2022-10-10T09:49:39.082Z,16.00
2022-10-10T09:50:43.944Z,16.07
2022-10-10T09:51:49.676Z,16.13
2022-10-10T09:52:54.260Z,16.16
2022-10-10T09:53:58.262Z,16.19
2022-10-10T09:55:03.292Z,16.21
2022-10-10T09:56:08.093Z,16.22
2022-10-10T09:57:13.489Z,16.24
2022-10-10T09:58:25.440Z,16.25
2022-10-10T09:59:40.096Z,16.28
2022-10-10T10:00:44.344Z,16.29
2022-10-10T10:02:03.617Z,16.33
2022-10-10T10:03:15.641Z,16.35
2022-10-10T10:04:28.647Z,16.36
2022-10-10T10:05:33.361Z,16.36
2022-10-10T10:06:37.839Z,16.37
2022-10-10T10:07:48.929Z,16.41
2022-10-10T10:08:54.936Z,16.44
2022-10-10T10:09:59.958Z,16.45
2022-10-10T10:11:05.178Z,16.45
2022-10-10T10:12:08.291Z,16.44
2022-10-10T10:13:15.171Z,16.46
2022-10-10T10:14:27.087Z,16.47
2022-10-10T10:15:33.331Z,16.50
2022-10-10T10:16:40.412Z,16.53
2022-10-10T10:17:43.478Z,16.57
2022-10-10T10:18:48.417Z,16.60
2022-10-10T10:19:52.200Z,16.63
2022-10-10T10:21:12.062Z,16.68
2022-10-10T10:22:34.529Z,16.73
2022-10-10T10:23:42.776Z,16.74
2022-10-10T10:24:48.241Z,16.77
2022-10-10T10:25:58.431Z,16.82
2022-10-10T10:27:11.118Z,16.87
2022-10-10T10:28:21.358Z,16.89
2022-10-10T10:29:30.327Z,16.90
2022-10-10T10:30:34.401Z,16.90
2022-10-10T10:31:58.112Z,16.96
2022-10-10T10:33:06.051Z,16.99
2022-10-10T10:34:24.508Z,17.03
2022-10-10T10:35:30.603Z,17.06
2022-10-10T10:36:40.781Z,17.11
2022-10-10T10:37:53.830Z,17.14
2022-10-10T10:39:05.181Z,17.22
2022-10-10T10:40:23.034Z,17.33
2022-10-10T10:41:31.800Z,17.42
2022-10-10T10:42:44.001Z,17.55
2022-10-10T10:44:10.601Z,17.64
2022-10-10T10:45:16.910Z,17.75
2022-10-10T10:46:29.191Z,17.85
2022-10-10T10:47:41.073Z,17.93
2022-10-10T10:48:47.142Z,18.02
2022-10-10T10:49:59.240Z,18.10
2022-10-10T10:51:08.519Z,18.18
2022-10-10T10:52:21.954Z,18.28
2022-10-10T10:53:30.829Z,18.42
2022-10-10T10:54:59.500Z,18.59
2022-10-10T10:56:13.412Z,18.72
2022-10-10T10:57:32.951Z,18.73
2022-10-10T10:59:23.536Z,18.85
2022-10-10T11:01:19.890Z,18.87
2022-10-10T11:01:57.010Z,18.90
2022-10-10T11:03:35.056Z,18.93
2022-10-10T11:05:19.330Z,18.85
2022-10-10T11:06:34.041Z,18.73
2022-10-10T11:07:45.474Z,18.67
2022-10-10T11:08:56.102Z,18.66
2022-10-10T11:10:03.306Z,18.63
2022-10-10T11:11:24.634Z,18.65
2022-10-10T11:12:46.231Z,18.64
2022-10-10T11:13:55.503Z,18.65
2022-10-10T11:15:02.849Z,18.61
2022-10-10T11:16:20.335Z,18.57
2022-10-10T11:17:38.974Z,18.55
2022-10-10T11:18:46.092Z,18.49
2022-10-10T11:19:57.074Z,18.47
2022-10-10T11:21:05.650Z,18.45
2022-10-10T11:22:11.938Z,18.44
2022-10-10T11:23:20.036Z,18.46
2022-10-10T11:24:33.822Z,18.52
2022-10-10T11:25:43.172Z,18.57
2022-10-10T11:26:51.356Z,18.62
2022-10-10T11:27:57.858Z,18.71
2022-10-10T11:29:03.884Z,18.84
2022-10-10T11:30:14.501Z,18.94
2022-10-10T11:31:20.909Z,19.03
2022-10-10T11:32:29.789Z,19.11
2022-10-10T11:33:37.013Z,19.18
2022-10-10T11:34:43.819Z,19.29
2022-10-10T11:35:51.761Z,19.39
2022-10-10T11:36:56.469Z,19.47
2022-10-10T11:38:03.739Z,19.53
2022-10-10T11:39:16.049Z,19.63
2022-10-10T11:40:34.872Z,19.65
2022-10-10T11:41:41.427Z,19.69
2022-10-10T11:42:50.252Z,19.76
2022-10-10T11:43:57.476Z,19.81
2022-10-10T11:45:03.868Z,19.86
2022-10-10T11:46:15.630Z,19.94
2022-10-10T11:47:24.892Z,20.03
2022-10-10T11:48:36.843Z,20.14
2022-10-10T11:49:45.250Z,20.25
2022-10-10T11:50:53.422Z,20.33
2022-10-10T11:52:35.400Z,20.47
2022-10-10T11:53:43.378Z,20.59
2022-10-10T11:54:51.717Z,20.68
2022-10-10T11:55:58.918Z,20.79
2022-10-10T11:57:05.991Z,20.90
2022-10-10T11:58:28.710Z,20.97
2022-10-10T11:59:35.172Z,21.04
2022-10-10T12:00:41.780Z,21.13
2022-10-10T12:01:49.934Z,21.21
2022-10-10T12:02:56.560Z,21.24
2022-10-10T12:04:00.663Z,21.28
2022-10-10T12:05:06.403Z,21.34
2022-10-10T12:06:15.480Z,21.41
2022-10-10T12:07:23.273Z,21.46
2022-10-10T12:08:31.256Z,21.42
2022-10-10T12:09:39.088Z,21.35
2022-10-10T12:10:46.422Z,21.37
2022-10-10T12:11:55.211Z,21.47
2022-10-10T12:13:04.759Z,21.51
2022-10-10T12:14:10.854Z,21.53
2022-10-10T12:15:27.601Z,21.53
2022-10-10T12:16:32.051Z,21.53
2022-10-10T12:17:43.734Z,21.63
2022-10-10T12:18:51.510Z,21.66
2022-10-10T12:19:55.915Z,21.63
2022-10-10T12:21:08.268Z,21.60
2022-10-10T12:22:23.980Z,21.62
2022-10-10T12:23:30.260Z,21.73
2022-10-10T12:24:38.640Z,21.80
2022-10-10T12:25:46.325Z,21.87
2022-10-10T12:27:11.859Z,21.92
2022-10-10T12:28:28.345Z,21.94
2022-10-10T12:29:46.817Z,21.95
2022-10-10T12:31:31.515Z,21.93
2022-10-10T12:32:42.410Z,21.92
2022-10-10T12:34:15.413Z,21.96
2022-10-10T12:35:38.691Z,21.97
2022-10-10T12:37:18.517Z,21.99
2022-10-10T12:38:24.301Z,21.98
2022-10-10T12:39:36.090Z,21.95
2022-10-10T12:41:11.783Z,22.05
2022-10-10T12:42:36.473Z,22.26
2022-10-10T12:43:46.069Z,22.46
2022-10-10T12:44:51.853Z,22.71
2022-10-10T12:46:08.509Z,22.85
2022-10-10T12:47:59.658Z,22.93
2022-10-10T12:49:01.410Z,22.91
2022-10-10T12:50:08.211Z,22.93
2022-10-10T12:51:20.892Z,22.96
2022-10-10T12:52:27.931Z,23.06
2022-10-10T12:53:33.825Z,23.21
2022-10-10T12:54:41.676Z,23.29
2022-10-10T12:55:47.302Z,23.42
2022-10-10T12:56:53.476Z,23.45
2022-10-10T12:57:59.920Z,23.56
2022-10-10T12:59:03.510Z,23.67
2022-10-10T13:00:17.874Z,23.65
2022-10-10T13:01:25.763Z,23.63
2022-10-10T13:02:30.204Z,23.70
2022-10-10T13:03:35.443Z,23.85
2022-10-10T13:04:44.190Z,24.04
2022-10-10T13:05:48.238Z,24.26
2022-10-10T13:06:56.277Z,24.44
2022-10-10T13:08:01.237Z,24.49
2022-10-10T13:09:06.918Z,24.46
2022-10-10T13:10:22.508Z,24.43
2022-10-10T13:11:25.685Z,24.41
2022-10-10T13:12:32.592Z,24.45
2022-10-10T13:13:35.912Z,24.42
2022-10-10T13:14:42.053Z,24.40
2022-10-10T13:15:55.061Z,24.43
2022-10-10T13:16:59.443Z,24.39
2022-10-10T13:18:03.651Z,24.32
2022-10-10T13:19:06.935Z,24.28
2022-10-10T13:20:28.902Z,24.27
2022-10-10T13:21:35.173Z,24.38
2022-10-10T13:22:38.521Z,24.53
2022-10-10T13:25:11.788Z,24.61
2022-10-10T13:26:28.023Z,24.44
2022-10-10T13:27:33.911Z,24.36
2022-10-10T13:28:37.495Z,24.27
2022-10-10T13:29:42.421Z,24.20
2022-10-10T13:30:47.340Z,24.26
2022-10-10T13:31:52.600Z,24.27
2022-10-10T13:32:57.520Z,24.22
2022-10-10T13:34:03.813Z,24.16
2022-10-10T13:35:15.281Z,24.12
2022-10-10T13:36:21.558Z,23.95
2022-10-10T13:37:26.076Z,23.79
2022-10-10T13:38:29.106Z,23.58
2022-10-10T13:39:35.781Z,23.39
2022-10-10T13:40:40.230Z,23.18
2022-10-10T13:41:45.739Z,22.94
2022-10-10T13:42:50.151Z,22.69
2022-10-10T13:43:53.741Z,22.54
2022-10-10T13:45:00.417Z,22.47
2022-10-10T13:46:05.632Z,22.48
2022-10-10T13:48:01.562Z,22.47
2022-10-10T13:49:15.553Z,22.21
2022-10-10T13:50:22.349Z,22.08
2022-10-10T13:51:44.117Z,22.07
2022-10-10T13:52:47.193Z,22.01
2022-10-10T13:53:53.272Z,22.00
2022-10-10T13:55:16.242Z,21.95
2022-10-10T13:56:26.253Z,21.88
2022-10-10T13:57:29.189Z,21.81
2022-10-10T13:58:39.441Z,21.77
2022-10-10T13:59:43.924Z,21.76
2022-10-10T14:00:55.428Z,21.81
2022-10-10T14:02:02.162Z,21.75
2022-10-10T14:03:13.902Z,21.66
2022-10-10T14:04:21.920Z,21.61
2022-10-10T14:05:28.854Z,21.54
2022-10-10T14:06:33.212Z,21.49
2022-10-10T14:07:36.413Z,21.44
2022-10-10T14:08:41.610Z,21.38
2022-10-10T14:09:52.624Z,21.31
2022-10-10T14:10:58.564Z,21.16
2022-10-10T14:12:04.583Z,21.02
2022-10-10T14:13:18.949Z,20.86
2022-10-10T14:14:25.195Z,20.72
2022-10-10T14:15:35.289Z,20.57
2022-10-10T14:16:39.242Z,20.46
2022-10-10T14:17:42.194Z,20.37
2022-10-10T14:18:46.386Z,20.36
2022-10-10T14:19:51.960Z,20.31
2022-10-10T14:20:56.469Z,20.32
2022-10-10T14:22:00.772Z,20.30
2022-10-10T14:23:05.071Z,20.30
2022-10-10T14:24:10.079Z,20.30
2022-10-10T14:25:13.188Z,20.29
2022-10-10T14:26:19.517Z,20.27
2022-10-10T14:27:25.061Z,20.24
2022-10-10T14:28:31.095Z,20.21
2022-10-10T14:29:34.262Z,20.16
2022-10-10T14:30:38.267Z,20.11
2022-10-10T14:31:41.597Z,20.09
2022-10-10T14:32:45.673Z,20.05
2022-10-10T14:33:49.655Z,20.02
2022-10-10T14:34:55.171Z,20.04
2022-10-10T14:35:59.764Z,19.99
2022-10-10T14:37:04.028Z,19.95
2022-10-10T14:38:07.197Z,19.95